createdAt,value
2022-11-06T00:00:30.953Z,99.90
2022-11-06T00:02:59.949Z,99.90
2022-11-06T00:05:45.867Z,99.90
2022-11-06T00:08:16.148Z,99.90
2022-11-06T00:10:44.151Z,99.90
2022-11-06T00:13:12.052Z,99.90
2022-11-06T00:15:39.945Z,99.90
2022-11-06T00:18:08.050Z,99.90
2022-11-06T00:20:35.949Z,99.90
2022-11-06T00:23:03.847Z,99.90
2022-11-06T00:25:33.142Z,99.90
2022-11-06T00:28:01.013Z,99.90
2022-11-06T00:30:28.857Z,99.90
2022-11-06T00:32:56.698Z,99.90
2022-11-06T00:35:24.738Z,99.90
2022-11-06T00:37:52.621Z,99.90
2022-11-06T00:40:20.533Z,99.90
2022-11-06T00:42:54.032Z,99.90
2022-11-06T00:45:21.863Z,99.90
2022-11-06T00:47:49.758Z,99.90
2022-11-06T00:50:18.450Z,99.90
2022-11-06T00:52:46.565Z,99.90
2022-11-06T00:55:14.430Z,99.90
2022-11-06T00:57:42.346Z,99.90
2022-11-06T01:00:13.189Z,99.90
2022-11-06T01:02:41.198Z,99.90
2022-11-06T01:05:09.403Z,99.90
2022-11-06T01:07:37.230Z,99.90
2022-11-06T01:10:05.766Z,99.90
2022-11-06T01:12:34.545Z,99.90
2022-11-06T01:15:02.423Z,99.90
2022-11-06T01:17:31.716Z,99.90
2022-11-06T01:19:59.577Z,99.90
2022-11-06T01:22:27.410Z,99.90
2022-11-06T01:24:55.311Z,99.90
2022-11-06T01:27:27.160Z,99.90
2022-11-06T01:29:55.689Z,99.90
2022-11-06T01:32:23.820Z,99.90
2022-11-06T01:34:53.040Z,99.90
2022-11-06T01:37:20.898Z,99.90
2022-11-06T01:39:50.956Z,99.90
2022-11-06T01:42:21.914Z,99.90
2022-11-06T01:45:23.120Z,99.90
2022-11-06T01:47:51.362Z,99.90
2022-11-06T01:50:21.076Z,99.90
2022-11-06T01:52:50.789Z,99.90
2022-11-06T01:55:23.976Z,99.90
2022-11-06T01:57:52.565Z,99.90
2022-11-06T02:00:21.104Z,99.90
2022-11-06T02:02:49.666Z,99.90
2022-11-06T02:05:18.024Z,99.90
2022-11-06T02:07:47.626Z,99.90
2022-11-06T02:10:15.829Z,99.90
2022-11-06T02:12:54.277Z,99.90
2022-11-06T02:15:31.973Z,99.90
2022-11-06T02:18:15.171Z,99.90
2022-11-06T02:20:55.058Z,99.90
2022-11-06T02:23:57.467Z,99.90
2022-11-06T02:26:57.541Z,99.90
2022-11-06T02:29:32.776Z,99.90
2022-11-06T02:32:04.602Z,99.90
2022-11-06T02:34:32.870Z,99.90
2022-11-06T02:37:05.161Z,99.90
2022-11-06T02:39:37.337Z,99.90
2022-11-06T02:42:09.357Z,99.90
2022-11-06T02:44:39.747Z,99.90
2022-11-06T02:47:10.993Z,99.90
2022-11-06T02:49:41.346Z,99.90
2022-11-06T02:52:13.801Z,99.90
2022-11-06T02:54:46.917Z,99.90
2022-11-06T02:57:20.070Z,99.90
2022-11-06T02:59:56.135Z,99.90
2022-11-06T03:02:28.920Z,99.90
2022-11-06T03:05:03.486Z,99.90
2022-11-06T03:07:37.467Z,99.90
2022-11-06T03:10:07.136Z,99.90
2022-11-06T03:12:45.129Z,99.90
2022-11-06T03:15:19.604Z,99.90
2022-11-06T03:17:51.072Z,99.90
2022-11-06T03:20:23.533Z,99.90
2022-11-06T03:22:58.230Z,99.90
2022-11-06T03:25:30.428Z,99.90
2022-11-06T03:28:06.020Z,99.90
2022-11-06T03:30:37.182Z,99.90
2022-11-06T03:33:14.308Z,99.90
2022-11-06T03:35:46.481Z,99.90
2022-11-06T03:38:19.608Z,99.90
2022-11-06T03:40:51.382Z,99.90
2022-11-06T03:43:24.960Z,99.90
2022-11-06T03:45:54.919Z,99.90
2022-11-06T03:48:30.888Z,99.90
2022-11-06T03:51:03.642Z,99.90
2022-11-06T03:53:35.709Z,99.90
2022-11-06T03:56:07.326Z,99.90
2022-11-06T03:58:40.013Z,99.90
2022-11-06T04:01:12.995Z,99.90
2022-11-06T04:03:45.438Z,99.90
2022-11-06T04:06:18.515Z,99.90
2022-11-06T04:09:05.371Z,99.90
2022-11-06T04:11:53.826Z,99.90
2022-11-06T04:14:27.153Z,99.90
2022-11-06T04:17:00.293Z,99.90
2022-11-06T04:19:28.312Z,99.90
2022-11-06T04:22:26.916Z,99.90
2022-11-06T04:25:22.333Z,99.90
2022-11-06T04:28:03.372Z,99.90
2022-11-06T04:30:40.101Z,99.90
2022-11-06T04:33:12.857Z,99.90
2022-11-06T04:35:52.736Z,99.90
2022-11-06T04:38:27.915Z,99.90
2022-11-06T04:41:03.772Z,99.90
2022-11-06T04:43:41.037Z,99.90
2022-11-06T04:46:14.337Z,99.90
2022-11-06T04:48:42.855Z,99.90
2022-11-06T04:51:12.505Z,99.90
2022-11-06T04:53:41.611Z,99.90
2022-11-06T04:56:12.384Z,99.90
2022-11-06T04:58:40.412Z,99.90
2022-11-06T05:01:08.310Z,99.90
2022-11-06T05:03:38.313Z,99.90
2022-11-06T05:06:06.774Z,99.90
2022-11-06T05:08:34.666Z,99.90
2022-11-06T05:11:02.577Z,99.90
2022-11-06T05:13:30.469Z,99.90
2022-11-06T05:15:59.220Z,99.90
2022-11-06T05:18:28.373Z,99.90
2022-11-06T05:21:14.516Z,99.90
2022-11-06T05:23:44.480Z,99.90
2022-11-06T05:26:12.336Z,99.90
2022-11-06T05:28:40.521Z,99.90
2022-11-06T05:31:08.557Z,99.90
2022-11-06T05:33:36.397Z,99.90
2022-11-06T05:36:06.861Z,99.90
2022-11-06T05:38:34.971Z,99.90
2022-11-06T05:41:02.985Z,99.90
2022-11-06T05:43:30.804Z,99.90
2022-11-06T05:46:00.444Z,99.90
2022-11-06T05:48:28.416Z,99.90
2022-11-06T05:51:01.654Z,99.90
2022-11-06T05:53:31.250Z,99.90
2022-11-06T05:55:59.130Z,99.90
2022-11-06T05:58:27.268Z,99.90
2022-11-06T06:00:56.270Z,99.90
2022-11-06T06:03:24.850Z,99.90
2022-11-06T06:05:54.221Z,99.90
2022-11-06T06:08:22.462Z,99.90
2022-11-06T06:10:51.648Z,99.90
2022-11-06T06:13:19.616Z,99.90
2022-11-06T06:15:47.447Z,99.90
2022-11-06T06:18:15.531Z,99.90
2022-11-06T06:20:43.569Z,99.90
2022-11-06T06:23:12.001Z,99.90
2022-11-06T06:25:39.841Z,99.90
2022-11-06T06:28:09.083Z,99.90
2022-11-06T06:30:36.931Z,99.90
2022-11-06T06:33:06.317Z,99.90
2022-11-06T06:35:34.741Z,99.90
2022-11-06T06:38:02.743Z,99.90
2022-11-06T06:40:30.950Z,99.90
2022-11-06T06:42:59.632Z,99.90
2022-11-06T06:45:29.887Z,99.90
2022-11-06T06:48:04.646Z,99.90
2022-11-06T06:50:32.948Z,99.90
2022-11-06T06:53:01.194Z,99.90
2022-11-06T06:55:29.545Z,99.90
2022-11-06T06:57:58.677Z,99.90
2022-11-06T07:00:28.685Z,99.90
2022-11-06T07:02:56.593Z,99.90
2022-11-06T07:05:26.444Z,99.90
2022-11-06T07:07:54.387Z,99.90
2022-11-06T07:10:22.237Z,99.90
2022-11-06T07:12:50.288Z,99.90
2022-11-06T07:15:18.326Z,99.90
2022-11-06T07:17:47.688Z,99.90
2022-11-06T07:20:15.612Z,99.90
2022-11-06T07:22:43.525Z,99.90
2022-11-06T07:25:12.071Z,99.90
2022-11-06T07:27:41.330Z,99.90
2022-11-06T07:30:12.546Z,99.90
2022-11-06T07:32:40.391Z,99.90
2022-11-06T07:35:10.860Z,99.90
2022-11-06T07:37:40.722Z,99.90
2022-11-06T07:40:10.967Z,99.90
2022-11-06T07:42:43.303Z,99.90
2022-11-06T07:45:11.905Z,99.90
2022-11-06T07:47:39.733Z,99.90
2022-11-06T07:50:09.570Z,99.90
2022-11-06T07:52:37.475Z,99.90
2022-11-06T07:55:06.302Z,99.90
2022-11-06T07:57:37.257Z,99.90
2022-11-06T08:00:06.281Z,99.90
2022-11-06T08:02:34.167Z,99.90
2022-11-06T08:05:02.148Z,99.90
2022-11-06T08:07:31.390Z,99.90
2022-11-06T08:09:59.266Z,99.90
2022-11-06T08:12:27.405Z,99.90
2022-11-06T08:14:55.223Z,99.90
2022-11-06T08:17:23.035Z,99.90
2022-11-06T08:19:50.853Z,99.90
2022-11-06T08:22:19.149Z,99.90
2022-11-06T08:24:48.317Z,99.90
2022-11-06T08:27:16.275Z,99.90
2022-11-06T08:29:44.116Z,99.90
2022-11-06T08:32:11.958Z,99.90
2022-11-06T08:34:39.812Z,99.90
2022-11-06T08:37:07.630Z,99.90
2022-11-06T08:39:35.459Z,99.90
2022-11-06T08:42:05.111Z,99.90
2022-11-06T08:44:32.896Z,99.90
2022-11-06T08:47:00.736Z,99.90
2022-11-06T08:49:28.592Z,99.90
2022-11-06T08:51:56.442Z,99.90
2022-11-06T08:54:26.534Z,99.90
2022-11-06T08:56:54.374Z,99.90
2022-11-06T08:59:23.558Z,99.90
2022-11-06T09:01:51.509Z,99.90
2022-11-06T09:04:19.552Z,99.90
2022-11-06T09:06:47.412Z,99.90
2022-11-06T09:09:15.329Z,99.90
2022-11-06T09:11:43.189Z,99.90
2022-11-06T09:14:11.191Z,99.90
2022-11-06T09:16:40.423Z,99.90
2022-11-06T09:19:08.357Z,99.90
2022-11-06T09:21:36.712Z,99.90
2022-11-06T09:24:05.102Z,99.90
2022-11-06T09:26:33.079Z,99.80
2022-11-06T09:29:00.916Z,98.30
2022-11-06T09:31:28.791Z,98.00
2022-11-06T09:33:58.038Z,98.20
2022-11-06T09:36:25.874Z,98.50
2022-11-06T09:38:53.688Z,98.80
2022-11-06T09:41:26.163Z,99.50
2022-11-06T09:44:10.495Z,99.90
2022-11-06T09:46:43.580Z,99.90
2022-11-06T09:49:20.312Z,99.90
2022-11-06T09:51:53.704Z,99.90
2022-11-06T09:54:26.792Z,99.90
2022-11-06T09:57:02.033Z,99.90
2022-11-06T09:59:32.819Z,99.90
2022-11-06T10:02:01.518Z,99.90
2022-11-06T10:04:41.796Z,99.90
2022-11-06T10:07:23.443Z,99.90
2022-11-06T10:09:51.372Z,99.90
2022-11-06T10:12:26.054Z,99.90
2022-11-06T10:15:04.718Z,99.90
2022-11-06T10:17:44.763Z,99.90
2022-11-06T10:20:25.378Z,99.90
2022-11-06T10:23:05.839Z,99.50
2022-11-06T10:25:53.565Z,97.60
2022-11-06T10:28:35.352Z,96.30
2022-11-06T10:31:12.131Z,95.30
2022-11-06T10:33:51.677Z,94.60
2022-11-06T10:36:23.466Z,95.00
2022-11-06T10:38:53.208Z,95.70
2022-11-06T10:41:25.088Z,97.00
2022-11-06T10:43:55.882Z,98.10
2022-11-06T10:46:30.090Z,99.20
2022-11-06T10:49:00.423Z,99.90
2022-11-06T10:51:51.589Z,99.90
2022-11-06T10:54:31.465Z,99.90
2022-11-06T10:57:20.071Z,99.90
2022-11-06T10:59:49.259Z,99.90
2022-11-06T11:02:26.009Z,99.90
2022-11-06T11:04:57.681Z,99.90
2022-11-06T11:07:30.601Z,99.90
2022-11-06T11:09:58.705Z,99.90
2022-11-06T11:12:29.608Z,99.90
2022-11-06T11:15:14.428Z,99.90
2022-11-06T11:17:44.285Z,99.90
2022-11-06T11:20:31.749Z,99.90
2022-11-06T11:23:13.672Z,99.90
2022-11-06T11:25:43.725Z,99.90
2022-11-06T11:28:23.692Z,99.90
2022-11-06T11:30:57.967Z,99.90
2022-11-06T11:33:27.058Z,99.90
2022-11-06T11:35:55.563Z,99.90
2022-11-06T11:38:26.109Z,99.90
2022-11-06T11:41:05.979Z,99.90
2022-11-06T11:43:33.895Z,99.90
2022-11-06T11:46:21.283Z,99.90
2022-11-06T11:48:51.288Z,99.90
2022-11-06T11:51:37.756Z,99.90
2022-11-06T11:54:17.423Z,99.90
2022-11-06T11:57:06.270Z,99.90
2022-11-06T11:59:42.618Z,99.90
2022-11-06T12:02:20.873Z,99.90
2022-11-06T12:04:54.731Z,99.90
2022-11-06T12:07:27.182Z,99.90
2022-11-06T12:09:56.645Z,99.90
2022-11-06T12:12:29.100Z,99.90
2022-11-06T12:15:07.196Z,99.90
2022-11-06T12:17:37.083Z,99.90
2022-11-06T12:20:12.584Z,99.90
2022-11-06T12:22:45.045Z,99.90
2022-11-06T12:25:20.453Z,99.90
2022-11-06T12:27:52.185Z,99.90
2022-11-06T12:30:21.728Z,99.90
2022-11-06T12:32:57.556Z,99.90
2022-11-06T12:35:29.339Z,99.90
2022-11-06T12:38:05.390Z,99.90
2022-11-06T12:40:38.917Z,99.90
2022-11-06T12:43:20.175Z,99.90
2022-11-06T12:46:04.246Z,99.90
2022-11-06T12:48:47.908Z,99.90
2022-11-06T12:51:22.903Z,99.90
2022-11-06T12:54:02.809Z,99.90
2022-11-06T12:56:42.328Z,99.90
2022-11-06T12:59:25.808Z,99.90
2022-11-06T13:02:02.469Z,99.90
2022-11-06T13:04:43.034Z,99.90
2022-11-06T13:07:35.927Z,99.90
2022-11-06T13:10:36.510Z,99.90
2022-11-06T13:13:28.172Z,99.90
2022-11-06T13:16:03.207Z,99.90
2022-11-06T13:18:34.914Z,99.90
2022-11-06T13:21:07.846Z,99.90
2022-11-06T13:23:39.405Z,99.90
2022-11-06T13:26:14.036Z,99.90
2022-11-06T13:28:46.009Z,99.90
2022-11-06T13:31:20.320Z,99.90
2022-11-06T13:33:50.435Z,99.90
2022-11-06T13:36:19.980Z,99.90
2022-11-06T13:38:55.011Z,99.90
2022-11-06T13:41:26.144Z,99.90
2022-11-06T13:44:00.296Z,99.90
2022-11-06T13:46:37.935Z,99.90
2022-11-06T13:49:17.273Z,99.90
2022-11-06T13:51:51.421Z,99.90
2022-11-06T13:54:29.659Z,99.90
2022-11-06T13:57:19.616Z,99.90
2022-11-06T14:00:11.492Z,99.90
2022-11-06T14:03:17.173Z,99.90
2022-11-06T14:05:52.491Z,99.90
2022-11-06T14:08:25.156Z,99.90
2022-11-06T14:10:57.584Z,99.90
2022-11-06T14:13:32.461Z,99.90
2022-11-06T14:16:03.014Z,99.90
2022-11-06T14:18:33.294Z,99.90
2022-11-06T14:21:42.791Z,99.90
2022-11-06T14:24:18.519Z,99.90
2022-11-06T14:26:47.756Z,99.90
2022-11-06T14:29:56.166Z,99.90
2022-11-06T14:32:42.506Z,99.90
2022-11-06T14:35:48.521Z,99.90
2022-11-06T14:38:39.132Z,99.90
2022-11-06T14:41:50.093Z,99.90
2022-11-06T14:44:40.860Z,99.90
2022-11-06T14:47:21.032Z,99.90
2022-11-06T14:49:53.144Z,99.90
2022-11-06T14:52:22.626Z,99.90
2022-11-06T14:55:04.375Z,99.90
2022-11-06T14:57:42.674Z,99.90
2022-11-06T15:00:16.337Z,99.90
2022-11-06T15:02:45.190Z,99.90
2022-11-06T15:05:19.285Z,99.90
2022-11-06T15:08:05.841Z,99.90
2022-11-06T15:10:55.117Z,99.90
2022-11-06T15:13:29.917Z,99.90
2022-11-06T15:16:04.205Z,99.90
2022-11-06T15:18:35.855Z,99.90
2022-11-06T15:21:06.931Z,99.90
2022-11-06T15:23:42.530Z,99.90
2022-11-06T15:26:23.752Z,99.90
2022-11-06T15:29:03.995Z,99.90
2022-11-06T15:31:34.202Z,99.90
2022-11-06T15:34:07.048Z,99.90
2022-11-06T15:36:40.484Z,99.90
2022-11-06T15:39:40.697Z,99.90
2022-11-06T15:42:14.670Z,99.90
2022-11-06T15:44:43.841Z,99.90
2022-11-06T15:47:21.964Z,99.90
2022-11-06T15:49:50.193Z,99.90
2022-11-06T15:52:19.293Z,99.90
2022-11-06T15:54:49.163Z,99.90
2022-11-06T15:57:21.693Z,99.90
2022-11-06T15:59:49.900Z,99.90
2022-11-06T16:02:20.472Z,99.90
2022-11-06T16:04:49.753Z,99.90
2022-11-06T16:07:19.436Z,99.90
2022-11-06T16:09:48.367Z,99.90
2022-11-06T16:12:19.361Z,99.90
2022-11-06T16:14:47.304Z,99.90
2022-11-06T16:17:19.450Z,99.90
2022-11-06T16:19:49.024Z,99.90
2022-11-06T16:22:19.273Z,99.90
2022-11-06T16:24:50.150Z,99.90
2022-11-06T16:27:20.083Z,99.90
2022-11-06T16:29:49.785Z,99.90
2022-11-06T16:32:20.514Z,99.90
2022-11-06T16:34:49.384Z,99.90
2022-11-06T16:37:38.232Z,99.90
2022-11-06T16:40:23.221Z,99.90
2022-11-06T16:43:03.898Z,99.90
2022-11-06T16:45:32.249Z,99.90
2022-11-06T16:48:39.761Z,99.90
2022-11-06T16:51:10.811Z,99.90
2022-11-06T16:54:00.009Z,99.90
2022-11-06T16:56:30.504Z,99.90
2022-11-06T16:59:04.123Z,99.90
2022-11-06T17:01:41.597Z,99.90
2022-11-06T17:04:20.709Z,99.90
2022-11-06T17:06:49.105Z,99.90
2022-11-06T17:09:30.554Z,99.90
2022-11-06T17:12:00.207Z,99.90
2022-11-06T17:14:30.446Z,99.90
2022-11-06T17:17:00.160Z,99.90
2022-11-06T17:19:29.233Z,99.90
2022-11-06T17:21:57.923Z,99.90
2022-11-06T17:24:41.505Z,99.90
2022-11-06T17:27:09.908Z,99.90
2022-11-06T17:29:39.269Z,99.90
2022-11-06T17:32:07.463Z,99.90
2022-11-06T17:34:35.403Z,99.90
2022-11-06T17:37:03.371Z,99.90
2022-11-06T17:39:32.712Z,99.90
2022-11-06T17:42:00.570Z,99.90
2022-11-06T17:44:28.479Z,99.90
2022-11-06T17:46:57.649Z,99.90
2022-11-06T17:49:25.465Z,99.90
2022-11-06T17:52:00.149Z,99.90
2022-11-06T17:54:31.850Z,99.90
2022-11-06T17:57:01.457Z,99.90
2022-11-06T17:59:29.562Z,99.90
2022-11-06T18:01:59.172Z,99.90
2022-11-06T18:04:30.403Z,99.90
2022-11-06T18:06:58.397Z,99.90
2022-11-06T18:09:26.676Z,99.90
2022-11-06T18:11:55.788Z,99.90
2022-11-06T18:14:26.063Z,99.90
2022-11-06T18:16:55.717Z,99.90
2022-11-06T18:19:26.466Z,99.90
2022-11-06T18:21:55.167Z,99.90
2022-11-06T18:24:23.377Z,99.90
2022-11-06T18:26:51.487Z,99.90
2022-11-06T18:29:19.880Z,99.90
2022-11-06T18:31:47.766Z,99.90
2022-11-06T18:34:20.574Z,99.90
2022-11-06T18:36:51.046Z,99.90
2022-11-06T18:39:19.362Z,99.90
2022-11-06T18:41:47.287Z,99.90
2022-11-06T18:44:17.074Z,99.90
2022-11-06T18:46:45.270Z,99.90
2022-11-06T18:49:13.630Z,99.90
2022-11-06T18:51:41.560Z,99.90
2022-11-06T18:54:12.670Z,99.90
2022-11-06T18:56:40.593Z,99.90
2022-11-06T18:59:09.759Z,99.90
2022-11-06T19:01:37.801Z,99.90
2022-11-06T19:04:06.313Z,99.90
2022-11-06T19:06:34.376Z,99.90
2022-11-06T19:09:02.395Z,99.90
2022-11-06T19:11:31.729Z,99.90
2022-11-06T19:13:59.606Z,99.90
2022-11-06T19:16:28.089Z,99.90
2022-11-06T19:21:30.374Z,99.90
2022-11-06T19:24:03.533Z,99.90
2022-11-06T19:26:34.576Z,99.90
2022-11-06T19:29:02.701Z,99.90
2022-11-06T19:31:31.679Z,99.90
2022-11-06T19:34:00.487Z,99.90
2022-11-06T19:36:28.457Z,99.90
2022-11-06T19:38:57.354Z,99.90
2022-11-06T19:41:25.671Z,99.90
2022-11-06T19:43:54.982Z,99.90
2022-11-06T19:46:27.209Z,99.90
2022-11-06T19:48:59.958Z,99.90
2022-11-06T19:51:27.983Z,99.90
2022-11-06T19:53:56.200Z,99.90
2022-11-06T19:56:24.207Z,99.90
2022-11-06T19:58:55.369Z,99.90
2022-11-06T20:01:23.383Z,99.90
2022-11-06T20:03:51.427Z,99.90
2022-11-06T20:06:19.338Z,99.90
2022-11-06T20:08:49.101Z,99.90
2022-11-06T20:11:17.745Z,99.90
2022-11-06T20:13:46.568Z,99.90
2022-11-06T20:16:17.820Z,99.90
2022-11-06T20:18:50.686Z,99.90
2022-11-06T20:21:18.999Z,99.90
2022-11-06T20:23:46.904Z,99.90
2022-11-06T20:26:15.259Z,99.90
2022-11-06T20:28:43.265Z,99.90
2022-11-06T20:31:12.677Z,99.90
2022-11-06T20:33:41.916Z,99.90
2022-11-06T20:36:11.263Z,99.90
2022-11-06T20:38:39.096Z,99.90
2022-11-06T20:41:07.126Z,99.90
2022-11-06T20:43:35.343Z,99.90
2022-11-06T20:46:04.229Z,99.90
2022-11-06T20:48:32.920Z,99.90
2022-11-06T20:51:03.810Z,99.90
2022-11-06T20:53:34.249Z,99.90
2022-11-06T20:56:03.772Z,99.90
2022-11-06T20:58:32.483Z,99.90
2022-11-06T21:01:03.968Z,99.90
2022-11-06T21:03:32.093Z,99.90
2022-11-06T21:06:00.021Z,99.90
2022-11-06T21:08:29.529Z,99.90
2022-11-06T21:11:04.876Z,99.90
2022-11-06T21:13:35.045Z,99.90
2022-11-06T21:16:05.349Z,99.90
2022-11-06T21:18:36.273Z,99.90
2022-11-06T21:21:04.854Z,99.90
2022-11-06T21:23:35.258Z,99.90
2022-11-06T21:26:05.992Z,99.90
2022-11-06T21:28:34.183Z,99.90
2022-11-06T21:31:02.121Z,99.90
2022-11-06T21:33:30.167Z,99.90
2022-11-06T21:36:07.685Z,99.90
2022-11-06T21:38:37.062Z,99.90
2022-11-06T21:41:08.604Z,99.90
2022-11-06T21:43:36.684Z,99.90
2022-11-06T21:46:05.727Z,99.90
2022-11-06T21:48:48.707Z,99.90
2022-11-06T21:51:19.350Z,99.90
2022-11-06T21:54:06.637Z,99.90
2022-11-06T21:56:35.258Z,99.90
2022-11-06T21:59:04.946Z,99.90
2022-11-06T22:01:34.011Z,99.90
2022-11-06T22:04:02.525Z,99.90
2022-11-06T22:06:30.989Z,99.90
2022-11-06T22:09:02.637Z,99.90
2022-11-06T22:11:32.012Z,99.90
2022-11-06T22:14:02.747Z,99.90
2022-11-06T22:16:32.964Z,99.90
2022-11-06T22:19:01.252Z,99.90
2022-11-06T22:21:30.832Z,99.90
2022-11-06T22:24:00.053Z,99.90
2022-11-06T22:26:30.242Z,99.90
2022-11-06T22:28:59.428Z,99.90
2022-11-06T22:31:28.650Z,99.90
2022-11-06T22:33:57.177Z,99.90
2022-11-06T22:36:25.959Z,99.90
2022-11-06T22:38:54.272Z,99.90
2022-11-06T22:41:25.297Z,99.90
2022-11-06T22:43:53.684Z,99.90
2022-11-06T22:46:23.880Z,99.90
2022-11-06T22:48:53.172Z,99.90
2022-11-06T22:51:22.962Z,99.90
2022-11-06T22:53:51.222Z,99.90
2022-11-06T22:56:19.830Z,99.90
2022-11-06T22:58:55.636Z,99.90
2022-11-06T23:01:24.707Z,99.90
2022-11-06T23:03:56.462Z,99.90
2022-11-06T23:06:24.936Z,99.90
2022-11-06T23:08:53.121Z,99.90
2022-11-06T23:11:22.407Z,99.90
2022-11-06T23:13:51.914Z,99.90
2022-11-06T23:16:42.465Z,99.90
2022-11-06T23:19:12.144Z,99.90
2022-11-06T23:21:40.675Z,99.90
2022-11-06T23:24:11.010Z,99.90
2022-11-06T23:26:38.903Z,99.90
2022-11-06T23:29:08.818Z,99.90
2022-11-06T23:31:36.639Z,99.90
2022-11-06T23:34:04.735Z,99.90
2022-11-06T23:36:32.567Z,99.90
2022-11-06T23:39:00.430Z,99.90
2022-11-06T23:41:46.753Z,99.90
2022-11-06T23:44:34.028Z,99.90
2022-11-06T23:47:02.557Z,99.90
2022-11-06T23:49:30.527Z,99.90
2022-11-06T23:51:58.615Z,99.90
2022-11-06T23:54:26.812Z,99.90
2022-11-06T23:56:54.708Z,99.90
2022-11-06T23:59:24.372Z,99.90
